createdAt,value
2016-08-26T00:00:11.325Z,0
2016-08-26T00:01:10.603Z,0
2016-08-26T00:02:12.002Z,0
2016-08-26T00:03:10.584Z,0
2016-08-26T00:04:11.993Z,0
2016-08-26T00:05:10.572Z,0
2016-08-26T00:06:11.273Z,0
2016-08-26T00:07:10.554Z,0
2016-08-26T00:08:11.260Z,0
2016-08-26T00:09:11.253Z,0
2016-08-26T00:10:10.589Z,0
2016-08-26T00:11:11.943Z,0
2016-08-26T00:12:10.522Z,0
2016-08-26T00:13:11.230Z,0
2016-08-26T00:14:10.503Z,0
2016-08-26T00:15:11.208Z,0
2016-08-26T00:16:10.500Z,0
2016-08-26T00:17:11.193Z,0
2016-08-26T00:18:11.191Z,0
2016-08-26T00:19:10.473Z,0
2016-08-26T00:20:10.477Z,0
2016-08-26T00:21:10.463Z,0
2016-08-26T00:22:10.448Z,0
2016-08-26T00:23:11.182Z,0
2016-08-26T00:24:10.451Z,0
2016-08-26T00:25:10.448Z,0
2016-08-26T00:26:11.156Z,0
2016-08-26T00:27:11.139Z,0
2016-08-26T00:28:11.153Z,0
2016-08-26T00:29:10.414Z,0
2016-08-26T00:30:11.114Z,0
2016-08-26T00:31:11.117Z,0
2016-08-26T00:32:10.399Z,0
2016-08-26T00:33:11.109Z,0
2016-08-26T00:34:11.098Z,0
2016-08-26T00:35:10.375Z,0
2016-08-26T00:36:10.389Z,0
2016-08-26T00:37:10.360Z,0
2016-08-26T00:38:10.360Z,0
2016-08-26T00:39:10.350Z,0
2016-08-26T00:40:10.345Z,0
2016-08-26T00:41:10.338Z,0
2016-08-26T00:42:10.339Z,0
2016-08-26T00:43:11.746Z,0
2016-08-26T00:44:11.026Z,0
2016-08-26T00:45:10.313Z,0
2016-08-26T00:46:10.332Z,0
2016-08-26T00:47:10.299Z,0
2016-08-26T00:48:10.293Z,0
2016-08-26T00:49:10.289Z,0
2016-08-26T00:50:10.991Z,0
2016-08-26T00:51:10.277Z,0
2016-08-26T00:52:10.975Z,0
2016-08-26T00:53:10.261Z,0
2016-08-26T00:54:11.031Z,0
2016-08-26T00:55:10.957Z,0
2016-08-26T00:56:10.241Z,0
2016-08-26T00:57:10.239Z,0
2016-08-26T00:58:10.937Z,0
2016-08-26T00:59:10.225Z,0
2016-08-26T01:00:11.640Z,0
2016-08-26T01:01:10.225Z,0
2016-08-26T01:02:10.914Z,0
2016-08-26T01:03:10.196Z,0
2016-08-26T01:04:10.195Z,0
2016-08-26T01:05:10.181Z,0
2016-08-26T01:06:10.177Z,0
2016-08-26T01:07:10.875Z,0
2016-08-26T01:08:10.878Z,0
2016-08-26T01:09:10.874Z,0
2016-08-26T01:10:10.856Z,0
2016-08-26T01:11:10.859Z,0
2016-08-26T01:12:10.132Z,0
2016-08-26T01:13:10.835Z,0
2016-08-26T01:14:10.124Z,0
2016-08-26T01:15:10.823Z,0
2016-08-26T01:16:10.819Z,0
2016-08-26T01:17:10.101Z,0
2016-08-26T01:18:10.097Z,0
2016-08-26T01:19:10.092Z,0
2016-08-26T01:20:10.844Z,0
2016-08-26T01:21:10.075Z,0
2016-08-26T01:22:10.779Z,0
2016-08-26T01:23:11.481Z,0
2016-08-26T01:24:11.476Z,0
2016-08-26T01:25:10.053Z,0
2016-08-26T01:26:11.468Z,0
2016-08-26T01:27:10.743Z,0
2016-08-26T01:28:10.025Z,0
2016-08-26T01:29:10.038Z,0
2016-08-26T01:30:10.061Z,0
2016-08-26T01:31:10.722Z,0
2016-08-26T01:32:10.005Z,0
2016-08-26T01:33:10.004Z,0
2016-08-26T01:34:09.999Z,0
2016-08-26T01:35:10.688Z,0
2016-08-26T01:36:10.692Z,0
2016-08-26T01:37:09.986Z,0
2016-08-26T01:38:09.965Z,0
2016-08-26T01:39:09.955Z,0
2016-08-26T01:40:09.949Z,0
2016-08-26T01:41:09.944Z,0
2016-08-26T01:42:09.936Z,0
2016-08-26T01:43:10.647Z,0
2016-08-26T01:44:09.925Z,0
2016-08-26T01:45:09.907Z,0
2016-08-26T01:46:09.913Z,0
2016-08-26T01:47:09.902Z,0
2016-08-26T01:48:10.612Z,0
2016-08-26T01:49:09.894Z,0
2016-08-26T01:50:09.882Z,0
2016-08-26T01:51:09.873Z,0
2016-08-26T01:52:09.870Z,0
2016-08-26T01:53:10.570Z,0
2016-08-26T01:54:10.587Z,0
2016-08-26T01:55:09.841Z,0
2016-08-26T01:56:09.849Z,0
2016-08-26T01:57:10.038Z,0
2016-08-26T01:58:09.833Z,0
2016-08-26T01:59:09.823Z,0
2016-08-26T02:00:10.516Z,0
2016-08-26T02:01:09.857Z,0
2016-08-26T02:02:09.800Z,0
2016-08-26T02:03:10.501Z,0
2016-08-26T02:04:10.515Z,0
2016-08-26T02:05:10.482Z,0
2016-08-26T02:06:09.791Z,0
2016-08-26T02:07:10.480Z,0
2016-08-26T02:08:09.774Z,0
2016-08-26T02:09:10.484Z,0
2016-08-26T02:10:10.453Z,0
2016-08-26T02:11:09.747Z,0
2016-08-26T02:12:10.443Z,0
2016-08-26T02:13:09.724Z,0
2016-08-26T02:14:10.480Z,0
2016-08-26T02:15:09.712Z,0
2016-08-26T02:16:09.703Z,0
2016-08-26T02:17:09.702Z,0
2016-08-26T02:18:09.699Z,0
2016-08-26T02:19:10.397Z,0
2016-08-26T02:20:09.731Z,0
2016-08-26T02:21:10.385Z,0
2016-08-26T02:22:10.378Z,0
2016-08-26T02:23:09.665Z,0
2016-08-26T02:24:09.653Z,0
2016-08-26T02:25:10.353Z,0
2016-08-26T02:26:10.402Z,0
2016-08-26T02:27:10.338Z,0
2016-08-26T02:28:11.041Z,0
2016-08-26T02:29:09.624Z,0
2016-08-26T02:30:10.315Z,0
2016-08-26T02:31:09.610Z,0
2016-08-26T02:32:09.596Z,0
2016-08-26T02:33:11.016Z,0
2016-08-26T02:34:09.590Z,0
2016-08-26T02:35:09.579Z,0
2016-08-26T02:36:09.571Z,0
2016-08-26T02:37:10.290Z,0
2016-08-26T02:38:09.576Z,0
2016-08-26T02:39:09.562Z,0
2016-08-26T02:40:09.597Z,0
2016-08-26T02:41:09.562Z,0
2016-08-26T02:42:09.584Z,0
2016-08-26T02:43:09.529Z,0
2016-08-26T02:44:09.533Z,0
2016-08-26T02:45:09.506Z,0
2016-08-26T02:46:09.502Z,0
2016-08-26T02:47:09.504Z,0
2016-08-26T02:48:09.489Z,0
2016-08-26T02:49:09.496Z,0
2016-08-26T02:50:10.183Z,0
2016-08-26T02:51:09.473Z,0
2016-08-26T02:52:09.466Z,0
2016-08-26T02:53:10.872Z,0
2016-08-26T02:54:10.170Z,0
2016-08-26T02:55:09.438Z,0
2016-08-26T02:56:09.429Z,0
2016-08-26T02:57:09.421Z,0
2016-08-26T02:58:09.419Z,0
2016-08-26T02:59:09.423Z,0
2016-08-26T03:00:09.405Z,0
2016-08-26T03:01:09.415Z,0
2016-08-26T03:02:09.411Z,0
2016-08-26T03:03:11.613Z,0
2016-08-26T03:04:09.389Z,0
2016-08-26T03:05:10.794Z,0
2016-08-26T03:06:10.075Z,0
2016-08-26T03:07:10.062Z,0
2016-08-26T03:08:09.349Z,0
2016-08-26T03:09:10.053Z,0
2016-08-26T03:10:09.335Z,0
2016-08-26T03:11:09.337Z,0
2016-08-26T03:12:09.333Z,0
2016-08-26T03:13:09.317Z,0
2016-08-26T03:14:10.018Z,0
2016-08-26T03:15:10.716Z,0
2016-08-26T03:16:10.025Z,0
2016-08-26T03:17:09.297Z,0
2016-08-26T03:18:09.991Z,0
2016-08-26T03:19:09.993Z,0
2016-08-26T03:20:09.274Z,0
2016-08-26T03:21:09.264Z,0
2016-08-26T03:22:09.255Z,0
2016-08-26T03:23:09.246Z,0
2016-08-26T03:24:09.950Z,0
2016-08-26T03:25:09.237Z,0
2016-08-26T03:26:09.239Z,0
2016-08-26T03:27:09.221Z,0
2016-08-26T03:28:09.920Z,0
2016-08-26T03:29:09.932Z,0
2016-08-26T03:30:09.201Z,0
2016-08-26T03:31:09.194Z,0
2016-08-26T03:32:09.205Z,0
2016-08-26T03:33:09.218Z,0
2016-08-26T03:34:09.183Z,0
2016-08-26T03:35:09.167Z,0
2016-08-26T03:36:09.157Z,0
2016-08-26T03:37:09.146Z,0
2016-08-26T03:38:09.141Z,0
2016-08-26T03:39:09.853Z,0
2016-08-26T03:40:09.829Z,0
2016-08-26T03:41:09.827Z,0
2016-08-26T03:42:09.121Z,0
2016-08-26T03:43:09.127Z,0
2016-08-26T03:44:09.114Z,0
2016-08-26T03:45:09.098Z,0
2016-08-26T03:46:09.095Z,0
2016-08-26T03:47:09.083Z,0
2016-08-26T03:48:09.077Z,0
2016-08-26T03:49:09.087Z,0
2016-08-26T03:50:09.780Z,0
2016-08-26T03:51:09.758Z,0
2016-08-26T03:52:09.051Z,0
2016-08-26T03:53:09.737Z,0
2016-08-26T03:54:09.746Z,0
2016-08-26T03:55:09.727Z,0
2016-08-26T03:56:09.023Z,0
2016-08-26T03:57:09.921Z,0
2016-08-26T03:58:08.994Z,0
2016-08-26T03:59:09.706Z,0
2016-08-26T04:00:11.115Z,0
2016-08-26T04:01:09.002Z,0
2016-08-26T04:02:09.683Z,0
2016-08-26T04:03:08.966Z,0
2016-08-26T04:04:08.976Z,0
2016-08-26T04:05:09.009Z,0
2016-08-26T04:06:08.949Z,0
2016-08-26T04:07:09.649Z,0
2016-08-26T04:08:09.638Z,0
2016-08-26T04:09:09.664Z,0
2016-08-26T04:10:11.974Z,0
2016-08-26T04:11:09.635Z,0
2016-08-26T04:12:08.912Z,0
2016-08-26T04:13:08.903Z,0
2016-08-26T04:14:10.356Z,0
2016-08-26T04:15:09.584Z,0
2016-08-26T04:16:08.875Z,0
2016-08-26T04:17:08.870Z,0
2016-08-26T04:18:09.570Z,0
2016-08-26T04:19:09.567Z,0
2016-08-26T04:20:08.841Z,0
2016-08-26T04:21:08.828Z,0
2016-08-26T04:22:08.881Z,0
2016-08-26T04:23:09.534Z,0
2016-08-26T04:24:09.522Z,0
2016-08-26T04:25:08.810Z,0
2016-08-26T04:26:08.795Z,0
2016-08-26T04:27:08.799Z,0
2016-08-26T04:28:09.494Z,0
2016-08-26T04:29:08.775Z,0
2016-08-26T04:30:08.777Z,0
2016-08-26T04:31:08.765Z,0
2016-08-26T04:32:09.479Z,0
2016-08-26T04:33:08.752Z,0
2016-08-26T04:34:08.739Z,5
2016-08-26T04:35:08.740Z,5
2016-08-26T04:36:09.433Z,5
2016-08-26T04:37:08.725Z,5
2016-08-26T04:38:09.416Z,5
2016-08-26T04:39:09.482Z,5
2016-08-26T04:40:09.445Z,5
2016-08-26T04:41:09.409Z,5
2016-08-26T04:42:09.400Z,5
2016-08-26T04:43:09.406Z,5
2016-08-26T04:44:08.675Z,10
2016-08-26T04:45:09.373Z,10
2016-08-26T04:46:09.370Z,10
2016-08-26T04:47:08.648Z,10
2016-08-26T04:48:09.362Z,10
2016-08-26T04:49:09.341Z,10
2016-08-26T04:50:09.343Z,10
2016-08-26T04:51:09.335Z,10
2016-08-26T04:52:08.618Z,15
2016-08-26T04:53:09.317Z,15
2016-08-26T04:54:08.601Z,15
2016-08-26T04:55:08.644Z,15
2016-08-26T04:56:08.603Z,15
2016-08-26T04:57:08.587Z,15
2016-08-26T04:58:09.283Z,15
2016-08-26T04:59:08.568Z,15
2016-08-26T05:00:08.559Z,20
2016-08-26T05:01:08.554Z,20
2016-08-26T05:02:09.246Z,20
2016-08-26T05:03:09.245Z,20
2016-08-26T05:04:09.948Z,20
2016-08-26T05:05:08.522Z,20
2016-08-26T05:06:09.933Z,20
2016-08-26T05:07:09.209Z,20
2016-08-26T05:08:08.495Z,25
2016-08-26T05:09:08.498Z,25
2016-08-26T05:10:08.486Z,25
2016-08-26T05:11:10.602Z,25
2016-08-26T05:12:08.467Z,25
2016-08-26T05:13:09.165Z,25
2016-08-26T05:14:08.454Z,25
2016-08-26T05:15:10.566Z,30
2016-08-26T05:16:09.151Z,30
2016-08-26T05:17:08.445Z,30
2016-08-26T05:18:08.434Z,30
2016-08-26T05:19:08.418Z,30
2016-08-26T05:20:08.408Z,30
2016-08-26T05:21:08.406Z,30
2016-08-26T05:22:08.394Z,35
2016-08-26T05:23:08.387Z,35
2016-08-26T05:24:08.384Z,35
2016-08-26T05:25:09.081Z,35
2016-08-26T05:26:08.366Z,35
2016-08-26T05:27:09.778Z,35
2016-08-26T05:28:08.350Z,35
2016-08-26T05:29:08.355Z,35
2016-08-26T05:30:08.338Z,35
2016-08-26T05:31:08.383Z,40
2016-08-26T05:32:10.447Z,40
2016-08-26T05:33:08.313Z,40
2016-08-26T05:34:09.011Z,40
2016-08-26T05:35:09.007Z,40
2016-08-26T05:36:08.300Z,40
2016-08-26T05:37:09.050Z,40
2016-08-26T05:38:08.278Z,40
2016-08-26T05:39:08.264Z,40
2016-08-26T05:40:10.391Z,40
2016-08-26T05:41:08.972Z,40
2016-08-26T05:42:08.953Z,45
2016-08-26T05:43:08.954Z,45
2016-08-26T05:44:08.949Z,45
2016-08-26T05:45:08.951Z,45
2016-08-26T05:46:09.634Z,45
2016-08-26T05:47:08.917Z,45
2016-08-26T05:48:08.914Z,45
2016-08-26T05:49:08.203Z,45
2016-08-26T05:50:08.915Z,45
2016-08-26T05:51:08.192Z,45
2016-08-26T05:52:08.176Z,45
2016-08-26T05:53:08.870Z,45
2016-08-26T05:54:08.163Z,45
2016-08-26T05:55:08.152Z,50
2016-08-26T05:56:08.144Z,50
2016-08-26T05:57:08.350Z,50
2016-08-26T05:58:08.131Z,50
2016-08-26T05:59:08.157Z,50
2016-08-26T06:00:09.541Z,50
2016-08-26T06:01:08.110Z,50
2016-08-26T06:02:08.814Z,55
2016-08-26T06:03:08.099Z,55
2016-08-26T06:04:08.097Z,55
2016-08-26T06:05:10.320Z,55
2016-08-26T06:06:09.513Z,55
2016-08-26T06:07:08.081Z,60
2016-08-26T06:08:08.069Z,55
2016-08-26T06:09:09.472Z,55
2016-08-26T06:10:08.807Z,55
2016-08-26T06:11:08.047Z,55
2016-08-26T06:12:08.739Z,55
2016-08-26T06:13:08.750Z,60
2016-08-26T06:14:10.151Z,60
2016-08-26T06:15:08.010Z,60
2016-08-26T06:16:08.011Z,55
2016-08-26T06:17:08.009Z,55
2016-08-26T06:18:08.706Z,55
2016-08-26T06:19:07.995Z,60
2016-08-26T06:20:07.989Z,60
2016-08-26T06:21:08.688Z,60
2016-08-26T06:22:08.675Z,65
2016-08-26T06:23:09.380Z,65
2016-08-26T06:24:08.663Z,65
2016-08-26T06:25:07.948Z,65
2016-08-26T06:26:09.347Z,65
2016-08-26T06:27:07.990Z,65
2016-08-26T06:28:07.938Z,65
2016-08-26T06:29:09.331Z,65
2016-08-26T06:30:09.336Z,65
2016-08-26T06:31:07.914Z,65
2016-08-26T06:32:08.608Z,65
2016-08-26T06:33:07.896Z,70
2016-08-26T06:34:07.885Z,70
2016-08-26T06:35:08.680Z,75
2016-08-26T06:36:07.876Z,75
2016-08-26T06:37:08.573Z,75
2016-08-26T06:38:07.863Z,80
2016-08-26T06:39:08.564Z,80
2016-08-26T06:40:07.852Z,80
2016-08-26T06:41:07.850Z,80
2016-08-26T06:42:07.853Z,85
2016-08-26T06:43:07.843Z,85
2016-08-26T06:44:07.838Z,85
2016-08-26T06:45:07.855Z,85
2016-08-26T06:46:07.821Z,85
2016-08-26T06:47:08.526Z,85
2016-08-26T06:48:07.858Z,85
2016-08-26T06:49:08.501Z,85
2016-08-26T06:50:08.509Z,90
2016-08-26T06:51:07.777Z,90
2016-08-26T06:52:08.480Z,90
2016-08-26T06:53:07.772Z,90
2016-08-26T06:54:08.523Z,90
2016-08-26T06:55:07.755Z,90
2016-08-26T06:56:08.474Z,90
2016-08-26T06:57:09.159Z,90
2016-08-26T06:58:08.450Z,85
2016-08-26T06:59:07.734Z,85
2016-08-26T07:00:07.743Z,90
2016-08-26T07:01:07.718Z,85
2016-08-26T07:02:08.440Z,85
2016-08-26T07:03:08.421Z,85
2016-08-26T07:04:07.713Z,85
2016-08-26T07:05:07.705Z,85
2016-08-26T07:06:08.430Z,85
2016-08-26T07:07:09.122Z,85
2016-08-26T07:08:07.699Z,85
2016-08-26T07:09:07.681Z,85
2016-08-26T07:10:08.409Z,85
2016-08-26T07:11:09.083Z,85
2016-08-26T07:12:08.432Z,85
2016-08-26T07:13:08.371Z,85
2016-08-26T07:14:08.369Z,85
2016-08-26T07:15:09.062Z,85
2016-08-26T07:16:07.661Z,85
2016-08-26T07:17:07.627Z,90
2016-08-26T07:18:08.337Z,95
2016-08-26T07:19:08.327Z,95
2016-08-26T07:20:07.624Z,100
2016-08-26T07:21:07.608Z,100
2016-08-26T07:22:08.329Z,100
2016-08-26T07:23:07.603Z,100
2016-08-26T07:24:08.295Z,100
2016-08-26T07:25:07.587Z,100
2016-08-26T07:26:07.591Z,100
2016-08-26T07:27:07.573Z,100
2016-08-26T07:28:07.593Z,105
2016-08-26T07:29:07.563Z,105
2016-08-26T07:30:07.551Z,110
2016-08-26T07:31:07.561Z,115
2016-08-26T07:32:07.555Z,120
2016-08-26T07:33:07.544Z,125
2016-08-26T07:34:07.535Z,125
2016-08-26T07:35:07.555Z,125
2016-08-26T07:36:08.245Z,120
2016-08-26T07:37:07.524Z,115
2016-08-26T07:38:07.518Z,110
2016-08-26T07:39:08.923Z,115
2016-08-26T07:40:07.501Z,115
2016-08-26T07:41:07.508Z,115
2016-08-26T07:42:07.502Z,115
2016-08-26T07:43:08.202Z,110
2016-08-26T07:44:07.483Z,105
2016-08-26T07:45:08.195Z,100
2016-08-26T07:46:08.205Z,100
2016-08-26T07:47:07.482Z,100
2016-08-26T07:48:08.883Z,100
2016-08-26T07:49:07.455Z,100
2016-08-26T07:50:08.171Z,100
2016-08-26T07:51:08.152Z,100
2016-08-26T07:52:08.152Z,100
2016-08-26T07:53:08.153Z,105
2016-08-26T07:54:08.137Z,105
2016-08-26T07:55:07.434Z,105
2016-08-26T07:56:07.578Z,105
2016-08-26T07:57:09.086Z,105
2016-08-26T07:58:08.194Z,105
2016-08-26T07:59:08.134Z,100
2016-08-26T08:00:07.407Z,100
2016-08-26T08:01:08.113Z,100
2016-08-26T08:02:07.398Z,105
2016-08-26T08:03:08.146Z,110
2016-08-26T08:04:07.385Z,110
2016-08-26T08:05:08.850Z,115
2016-08-26T08:06:07.374Z,120
2016-08-26T08:07:08.793Z,125
2016-08-26T08:08:08.783Z,130
2016-08-26T08:09:07.361Z,135
2016-08-26T08:10:07.356Z,140
2016-08-26T08:11:08.774Z,150
2016-08-26T08:12:07.353Z,150
2016-08-26T08:13:07.340Z,160
2016-08-26T08:14:08.084Z,460
2016-08-26T08:15:08.764Z,975
2016-08-26T08:16:08.043Z,490
2016-08-26T08:17:07.326Z,530
2016-08-26T08:18:07.323Z,675
2016-08-26T08:19:08.028Z,515
2016-08-26T08:20:07.311Z,290
2016-08-26T08:21:07.508Z,230
2016-08-26T08:22:08.714Z,150
2016-08-26T08:23:08.716Z,155
2016-08-26T08:24:07.295Z,230
2016-08-26T08:25:07.292Z,320
2016-08-26T08:26:07.282Z,345
2016-08-26T08:27:07.294Z,405
2016-08-26T08:28:07.278Z,470
2016-08-26T08:29:07.281Z,505
2016-08-26T08:30:07.990Z,750
2016-08-26T08:31:08.697Z,980
2016-08-26T08:32:07.969Z,745
2016-08-26T08:33:07.971Z,660
2016-08-26T08:34:07.981Z,790
2016-08-26T08:35:07.959Z,615
2016-08-26T08:36:07.954Z,410
2016-08-26T08:37:07.246Z,415
2016-08-26T08:38:07.245Z,540
2016-08-26T08:39:07.942Z,560
2016-08-26T08:40:07.253Z,430
2016-08-26T08:41:07.935Z,285
2016-08-26T08:42:07.231Z,280
2016-08-26T08:43:07.983Z,210
2016-08-26T08:44:07.229Z,145
2016-08-26T08:45:07.982Z,125
2016-08-26T08:46:07.215Z,130
2016-08-26T08:47:08.628Z,135
2016-08-26T08:48:07.949Z,130
2016-08-26T08:49:07.918Z,125
2016-08-26T08:50:07.919Z,120
2016-08-26T08:51:07.229Z,125
2016-08-26T08:52:07.200Z,135
2016-08-26T08:53:07.208Z,135
2016-08-26T08:54:07.204Z,130
2016-08-26T08:55:07.896Z,120
2016-08-26T08:56:07.184Z,130
2016-08-26T08:57:08.605Z,125
2016-08-26T08:58:07.178Z,125
2016-08-26T08:59:07.882Z,130
2016-08-26T09:00:07.177Z,125
2016-08-26T09:01:07.166Z,120
2016-08-26T09:02:07.178Z,125
2016-08-26T09:03:07.161Z,135
2016-08-26T09:04:07.160Z,180
2016-08-26T09:05:07.164Z,280
2016-08-26T09:06:07.146Z,245
2016-08-26T09:07:07.853Z,480
2016-08-26T09:08:07.846Z,540
2016-08-26T09:09:07.134Z,305
2016-08-26T09:10:07.155Z,345
2016-08-26T09:11:07.135Z,310
2016-08-26T09:12:07.124Z,235
2016-08-26T09:13:07.119Z,220
2016-08-26T09:14:07.122Z,175
2016-08-26T09:15:07.118Z,145
2016-08-26T09:16:07.106Z,185
2016-08-26T09:17:07.117Z,200
2016-08-26T09:18:07.109Z,135
2016-08-26T09:19:07.806Z,140
2016-08-26T09:20:07.109Z,140
2016-08-26T09:21:07.153Z,150
2016-08-26T09:22:07.800Z,145
2016-08-26T09:23:07.087Z,200
2016-08-26T09:24:07.094Z,145
2016-08-26T09:25:07.788Z,155
2016-08-26T09:26:07.081Z,160
2016-08-26T09:27:07.072Z,165
2016-08-26T09:28:07.082Z,140
2016-08-26T09:29:08.496Z,140
2016-08-26T09:30:07.068Z,180
2016-08-26T09:31:07.766Z,150
2016-08-26T09:32:07.798Z,200
2016-08-26T09:33:07.758Z,270
2016-08-26T09:34:07.041Z,210
2016-08-26T09:35:07.045Z,150
2016-08-26T09:36:07.093Z,160
2016-08-26T09:37:07.738Z,155
2016-08-26T09:38:07.033Z,155
2016-08-26T09:39:07.032Z,170
2016-08-26T09:40:07.024Z,165
2016-08-26T09:41:07.730Z,165
2016-08-26T09:42:07.022Z,165
2016-08-26T09:43:07.010Z,170
2016-08-26T09:44:07.007Z,170
2016-08-26T09:45:07.748Z,175
2016-08-26T09:46:07.001Z,185
2016-08-26T09:47:07.020Z,185
2016-08-26T09:48:06.992Z,175
2016-08-26T09:49:07.698Z,175
2016-08-26T09:50:06.989Z,160
2016-08-26T09:51:07.692Z,150
2016-08-26T09:52:06.989Z,150
2016-08-26T09:53:06.974Z,150
2016-08-26T09:54:07.702Z,165
2016-08-26T09:55:06.975Z,175
2016-08-26T09:56:06.968Z,185
2016-08-26T09:57:08.792Z,160
2016-08-26T09:58:07.669Z,160
2016-08-26T09:59:06.961Z,195
2016-08-26T10:00:06.963Z,220
2016-08-26T10:01:06.958Z,180
2016-08-26T10:02:07.669Z,210
2016-08-26T10:03:06.944Z,240
2016-08-26T10:04:07.654Z,185
2016-08-26T10:05:06.943Z,180
2016-08-26T10:06:06.942Z,175
2016-08-26T10:07:07.639Z,165
2016-08-26T10:08:06.943Z,165
2016-08-26T10:09:06.974Z,165
2016-08-26T10:10:08.335Z,170
2016-08-26T10:11:06.967Z,180
2016-08-26T10:12:06.916Z,185
2016-08-26T10:13:06.917Z,185
2016-08-26T10:14:06.911Z,200
2016-08-26T10:15:09.028Z,200
2016-08-26T10:16:06.915Z,220
2016-08-26T10:17:08.313Z,200
2016-08-26T10:18:06.915Z,190
2016-08-26T10:19:06.885Z,225
2016-08-26T10:20:09.035Z,205
2016-08-26T10:21:09.008Z,190
2016-08-26T10:22:08.289Z,190
2016-08-26T10:23:08.284Z,185
2016-08-26T10:24:07.577Z,205
2016-08-26T10:25:07.639Z,235
2016-08-26T10:26:07.578Z,315
2016-08-26T10:27:06.861Z,340
2016-08-26T10:28:08.275Z,290
2016-08-26T10:29:06.851Z,270
2016-08-26T10:30:07.559Z,200
2016-08-26T10:31:06.859Z,170
2016-08-26T10:32:06.838Z,180
2016-08-26T10:33:07.550Z,200
2016-08-26T10:34:06.844Z,255
2016-08-26T10:35:06.831Z,285
2016-08-26T10:36:06.847Z,270
2016-08-26T10:37:08.239Z,330
2016-08-26T10:38:06.818Z,345
2016-08-26T10:39:06.875Z,365
2016-08-26T10:40:06.824Z,430
2016-08-26T10:41:07.521Z,465
2016-08-26T10:42:08.229Z,455
2016-08-26T10:43:06.811Z,325
2016-08-26T10:44:08.219Z,265
2016-08-26T10:45:07.510Z,260
2016-08-26T10:46:06.801Z,230
2016-08-26T10:47:06.796Z,205
2016-08-26T10:48:06.793Z,195
2016-08-26T10:49:06.800Z,190
2016-08-26T10:50:07.501Z,205
2016-08-26T10:51:08.201Z,255
2016-08-26T10:52:07.510Z,260
2016-08-26T10:53:06.779Z,375
2016-08-26T10:54:06.780Z,455
2016-08-26T10:55:06.775Z,420
2016-08-26T10:56:06.777Z,435
2016-08-26T10:57:07.481Z,280
2016-08-26T10:58:07.485Z,430
2016-08-26T10:59:06.776Z,670
2016-08-26T11:00:06.767Z,655
2016-08-26T11:01:07.475Z,1340
2016-08-26T11:02:07.468Z,755
2016-08-26T11:03:06.759Z,650
2016-08-26T11:04:07.466Z,575
2016-08-26T11:05:08.243Z,395
2016-08-26T11:06:07.480Z,475
2016-08-26T11:07:06.770Z,565
2016-08-26T11:08:07.475Z,685
2016-08-26T11:09:07.459Z,1030
2016-08-26T11:10:07.453Z,1320
2016-08-26T11:11:06.747Z,1565
2016-08-26T11:12:06.749Z,1660
2016-08-26T11:13:06.742Z,1630
2016-08-26T11:14:07.473Z,1760
2016-08-26T11:15:07.461Z,1805
2016-08-26T11:16:07.495Z,1840
2016-08-26T11:17:08.170Z,1835
2016-08-26T11:18:07.479Z,1820
2016-08-26T11:19:08.172Z,1825
2016-08-26T11:20:07.472Z,1830
2016-08-26T11:21:06.803Z,1475
2016-08-26T11:22:07.470Z,1640
2016-08-26T11:23:08.178Z,1660
2016-08-26T11:24:08.182Z,1785
2016-08-26T11:25:06.774Z,1750
2016-08-26T11:26:07.481Z,1850
2016-08-26T11:27:07.484Z,1870
2016-08-26T11:28:06.793Z,1825
2016-08-26T11:29:07.496Z,1835
2016-08-26T11:30:08.201Z,1805
2016-08-26T11:31:07.707Z,1775
2016-08-26T11:32:06.793Z,1740
2016-08-26T11:33:06.802Z,1605
2016-08-26T11:34:08.219Z,1475
2016-08-26T11:35:06.804Z,1385
2016-08-26T11:36:08.237Z,1450
2016-08-26T11:37:08.972Z,1870
2016-08-26T11:38:07.533Z,1820
2016-08-26T11:39:08.246Z,1845
2016-08-26T11:40:07.547Z,1795
2016-08-26T11:41:07.548Z,1805
2016-08-26T11:42:06.839Z,1945
2016-08-26T11:43:06.851Z,1990
2016-08-26T11:44:06.850Z,2055
2016-08-26T11:45:07.563Z,2070
2016-08-26T11:46:06.855Z,2085
2016-08-26T11:47:08.283Z,2090
2016-08-26T11:48:06.866Z,1980
2016-08-26T11:49:07.574Z,2015
2016-08-26T11:50:07.593Z,1900
2016-08-26T11:51:06.882Z,1870
2016-08-26T11:52:06.886Z,1920
2016-08-26T11:53:07.622Z,1990
2016-08-26T11:54:06.907Z,2000
2016-08-26T11:55:06.901Z,1990
2016-08-26T11:56:06.921Z,1920
2016-08-26T11:57:08.050Z,1945
2016-08-26T11:58:07.631Z,1985
2016-08-26T11:59:07.655Z,1955
2016-08-26T12:00:07.665Z,1990
2016-08-26T12:01:06.942Z,2005
2016-08-26T12:02:06.964Z,2030
2016-08-26T12:03:06.959Z,2050
2016-08-26T12:04:07.685Z,2055
2016-08-26T12:05:07.691Z,2050
2016-08-26T12:06:06.985Z,2030
2016-08-26T12:07:06.995Z,2035
2016-08-26T12:08:06.991Z,2020
2016-08-26T12:09:07.012Z,2005
2016-08-26T12:10:07.713Z,2015
2016-08-26T12:11:07.726Z,2025
2016-08-26T12:12:07.746Z,2040
2016-08-26T12:13:07.035Z,2055
2016-08-26T12:14:07.045Z,2065
2016-08-26T12:15:07.747Z,2060
2016-08-26T12:16:09.212Z,2050
2016-08-26T12:17:07.781Z,2010
2016-08-26T12:18:07.086Z,1995
2016-08-26T12:19:07.085Z,2015
2016-08-26T12:20:08.503Z,2010
2016-08-26T12:21:07.110Z,1980
2016-08-26T12:22:07.094Z,1980
2016-08-26T12:23:07.106Z,1920
2016-08-26T12:24:07.112Z,2005
2016-08-26T12:25:07.844Z,1860
2016-08-26T12:26:07.878Z,1590
2016-08-26T12:27:08.568Z,1545
2016-08-26T12:28:07.877Z,1510
2016-08-26T12:29:07.886Z,1620
2016-08-26T12:30:08.599Z,1800
2016-08-26T12:31:08.584Z,1900
2016-08-26T12:32:07.193Z,1925
2016-08-26T12:33:07.199Z,1940
2016-08-26T12:34:07.904Z,1945
2016-08-26T12:35:07.947Z,1950
2016-08-26T12:36:07.950Z,1955
2016-08-26T12:37:07.242Z,1980
2016-08-26T12:38:08.681Z,1990
2016-08-26T12:39:07.978Z,2000
2016-08-26T12:40:07.262Z,1985
2016-08-26T12:41:07.246Z,1970
2016-08-26T12:42:07.258Z,1950
2016-08-26T12:43:07.272Z,1930
2016-08-26T12:44:07.988Z,1905
2016-08-26T12:45:07.994Z,1900
2016-08-26T12:46:07.995Z,1865
2016-08-26T12:47:08.720Z,1840
2016-08-26T12:48:07.301Z,1825
2016-08-26T12:49:08.016Z,1780
2016-08-26T12:50:07.320Z,1750
2016-08-26T12:51:07.335Z,1750
2016-08-26T12:52:07.331Z,1790
2016-08-26T12:53:07.346Z,1775
2016-08-26T12:54:07.355Z,1755
2016-08-26T12:55:07.364Z,1725
2016-08-26T12:56:07.370Z,1705
2016-08-26T12:57:08.088Z,1690
2016-08-26T12:58:07.408Z,1650
2016-08-26T12:59:07.447Z,1565
2016-08-26T13:00:07.408Z,1590
2016-08-26T13:01:09.536Z,1650
2016-08-26T13:02:08.127Z,1720
2016-08-26T13:03:07.422Z,1745
2016-08-26T13:04:08.846Z,1720
2016-08-26T13:05:08.406Z,1725
2016-08-26T13:06:07.451Z,1755
2016-08-26T13:07:08.152Z,1770
2016-08-26T13:08:08.229Z,1705
2016-08-26T13:09:07.461Z,1730
2016-08-26T13:10:08.183Z,1710
2016-08-26T13:11:08.894Z,1700
2016-08-26T13:12:07.475Z,1720
2016-08-26T13:13:08.907Z,1680
2016-08-26T13:14:07.574Z,1680
2016-08-26T13:15:07.505Z,1645
2016-08-26T13:16:07.520Z,1615
2016-08-26T13:17:07.514Z,1600
2016-08-26T13:18:07.525Z,1605
2016-08-26T13:19:08.253Z,1610
2016-08-26T13:20:08.266Z,1600
2016-08-26T13:21:08.302Z,1590
2016-08-26T13:22:08.273Z,1605
2016-08-26T13:23:07.555Z,1625
2016-08-26T13:24:08.985Z,1605
2016-08-26T13:25:08.989Z,1565
2016-08-26T13:26:07.577Z,1520
2016-08-26T13:27:07.591Z,1490
2016-08-26T13:28:07.594Z,1505
2016-08-26T13:29:08.309Z,1540
2016-08-26T13:30:07.610Z,1555
2016-08-26T13:31:08.329Z,1540
2016-08-26T13:32:07.641Z,1515
2016-08-26T13:33:07.651Z,1470
2016-08-26T13:34:08.345Z,1480
2016-08-26T13:35:07.654Z,1500
2016-08-26T13:36:07.650Z,1480
2016-08-26T13:37:08.373Z,1485
2016-08-26T13:38:07.682Z,1470
2016-08-26T13:39:08.378Z,1480
2016-08-26T13:40:08.438Z,1485
2016-08-26T13:41:07.680Z,1485
2016-08-26T13:42:07.689Z,1435
2016-08-26T13:43:09.149Z,1445
2016-08-26T13:44:07.715Z,1435
2016-08-26T13:45:08.431Z,1455
2016-08-26T13:46:08.457Z,1455
2016-08-26T13:47:08.440Z,1460
2016-08-26T13:48:07.740Z,1435
2016-08-26T13:49:07.749Z,1435
2016-08-26T13:50:09.180Z,1375
2016-08-26T13:51:07.760Z,1400
2016-08-26T13:52:07.799Z,1425
2016-08-26T13:53:07.776Z,1415
2016-08-26T13:54:07.776Z,1425
2016-08-26T13:55:08.491Z,1415
2016-08-26T13:56:07.802Z,1350
2016-08-26T13:57:07.825Z,1340
2016-08-26T13:58:09.408Z,1325
2016-08-26T13:59:07.805Z,1265
2016-08-26T14:00:09.224Z,1320
2016-08-26T14:01:07.827Z,1345
2016-08-26T14:02:07.837Z,1230
2016-08-26T14:03:07.838Z,1345
2016-08-26T14:04:08.573Z,1360